Time;durP1;ratioP1;P1;durP2;ratioP2;P2;SDS_P1;SDS_P2;PMS_P1;PMS_P2;Temp;Humidity;BMP_temperature;BMP_pressure;BME280_temperature;BME280_humidity;BME280_pressure;Samples;Min_cycle;Max_cycle;Signal;HPM_P1;HPM_P2
2023/03/01 00:00:28;;;;;;;7.33;4.03;;;1.90;99.90;;;;;;5004857;28;20449;-71
2023/03/01 00:02:55;;;;;;;8.37;3.90;;;1.90;99.90;;;;;;5009348;28;20439;-70
2023/03/01 00:05:22;;;;;;;4.70;4.30;;;2.00;99.90;;;;;;5005073;28;20466;-70
2023/03/01 00:07:53;;;;;;;4.07;3.33;;;2.00;99.90;;;;;;5004357;28;20489;-70
2023/03/01 00:10:20;;;;;;;4.67;3.33;;;2.00;99.90;;;;;;5006885;28;20473;-70
2023/03/01 00:12:47;;;;;;;3.40;3.07;;;1.90;99.90;;;;;;5007373;28;20519;-71
2023/03/01 00:15:14;;;;;;;4.90;4.00;;;1.90;99.90;;;;;;5002150;28;20548;-70
2023/03/01 00:17:41;;;;;;;6.23;3.20;;;1.70;99.90;;;;;;4998739;28;21538;-70
2023/03/01 00:20:10;;;;;;;4.27;2.83;;;1.60;99.90;;;;;;5005696;28;20513;-70
2023/03/01 00:22:37;;;;;;;6.83;3.30;;;1.40;99.90;;;;;;4999565;28;20512;-70
2023/03/01 00:25:05;;;;;;;4.90;2.83;;;1.20;99.90;;;;;;5003191;28;20440;-70
2023/03/01 00:27:32;;;;;;;7.23;4.27;;;1.20;99.90;;;;;;5007192;28;20462;-71
2023/03/01 00:29:59;;;;;;;4.53;3.20;;;1.10;99.90;;;;;;5004259;28;20574;-70
2023/03/01 00:32:26;;;;;;;5.20;2.70;;;1.10;99.90;;;;;;5000059;28;20464;-71
2023/03/01 00:34:56;;;;;;;3.53;3.20;;;1.00;99.90;;;;;;5008425;28;20454;-70
2023/03/01 00:37:24;;;;;;;5.47;3.40;;;1.00;99.90;;;;;;5013585;28;20484;-70
2023/03/01 00:39:51;;;;;;;5.13;3.57;;;0.90;99.90;;;;;;4997560;28;20473;-70
2023/03/01 00:42:19;;;;;;;5.87;3.80;;;1.00;99.90;;;;;;5003277;28;20485;-70
2023/03/01 00:44:46;;;;;;;9.27;4.10;;;0.80;99.90;;;;;;4999361;28;20863;-70
2023/03/01 00:47:13;;;;;;;4.60;4.20;;;0.70;99.90;;;;;;5002682;28;20455;-70
2023/03/01 00:49:40;;;;;;;3.50;2.70;;;0.60;99.90;;;;;;5007065;28;20455;-70
2023/03/01 00:52:07;;;;;;;4.90;3.00;;;0.50;99.90;;;;;;5004647;28;20493;-70
2023/03/01 00:54:34;;;;;;;8.43;4.53;;;0.40;99.90;;;;;;4999476;28;20440;-70
2023/03/01 00:57:01;;;;;;;4.43;3.47;;;0.40;99.90;;;;;;5003026;28;20456;-69
2023/03/01 00:59:29;;;;;;;4.90;2.90;;;0.50;99.90;;;;;;5005693;28;20472;-71
2023/03/01 01:01:56;;;;;;;5.60;3.60;;;0.60;99.90;;;;;;5002148;28;20461;-70
2023/03/01 01:04:23;;;;;;;5.47;3.40;;;0.60;99.90;;;;;;5002540;28;20565;-71
2023/03/01 01:06:50;;;;;;;5.20;2.97;;;0.30;99.90;;;;;;5007341;28;20481;-70
2023/03/01 01:09:18;;;;;;;2.93;2.73;;;0.20;99.90;;;;;;5008518;28;20523;-70
2023/03/01 01:11:46;;;;;;;4.67;2.83;;;0.20;99.90;;;;;;5025908;28;20548;-70
2023/03/01 01:14:13;;;;;;;3.03;2.83;;;0.30;99.90;;;;;;5023045;28;20433;-71
2023/03/01 01:16:41;;;;;;;4.00;3.00;;;0.20;99.90;;;;;;5010110;28;20480;-71
2023/03/01 01:19:08;;;;;;;6.90;4.33;;;0.30;99.90;;;;;;5002894;28;20437;-71
2023/03/01 01:21:36;;;;;;;3.80;3.37;;;0.10;99.90;;;;;;5002293;28;20487;-71
2023/03/01 01:24:04;;;;;;;4.50;3.00;;;0.10;99.90;;;;;;4963673;28;21243;-71
2023/03/01 01:26:34;;;;;;;7.67;3.77;;;0.10;99.90;;;;;;5012642;28;20473;-71
2023/03/01 01:29:05;;;;;;;9.03;3.97;;;0.10;99.90;;;;;;5008610;28;20463;-71
2023/03/01 01:31:33;;;;;;;4.67;3.33;;;-0.10;99.90;;;;;;5006013;28;21008;-71
2023/03/01 01:34:04;;;;;;;6.60;4.57;;;-0.20;99.90;;;;;;5006495;28;20534;-71
2023/03/01 01:36:31;;;;;;;3.97;2.93;;;-0.20;99.90;;;;;;5013100;28;20454;-71
2023/03/01 01:39:01;;;;;;;3.63;3.30;;;-0.30;99.90;;;;;;5009753;28;20462;-70
2023/03/01 01:41:29;;;;;;;2.63;2.10;;;-0.30;99.90;;;;;;5007471;28;20427;-70
2023/03/01 01:44:15;;;;;;;7.23;3.00;;;-0.30;99.90;;;;;;4999635;28;20899;-71
2023/03/01 01:46:44;;;;;;;6.80;3.97;;;-0.10;99.90;;;;;;5004446;28;20518;-71
2023/03/01 01:49:21;;;;;;;5.00;2.97;;;-0.40;99.90;;;;;;5004453;28;20462;-70
2023/03/01 01:51:52;;;;;;;4.43;2.67;;;-0.40;99.90;;;;;;5002121;28;20910;-70
2023/03/01 01:54:23;;;;;;;4.40;3.10;;;-0.30;99.90;;;;;;5007117;28;21071;-70
2023/03/01 01:56:55;;;;;;;9.97;5.50;;;-0.30;99.90;;;;;;5009224;28;20477;-70
2023/03/01 01:59:24;;;;;;;6.40;3.67;;;-0.20;99.90;;;;;;5014670;28;20455;-70
2023/03/01 02:01:52;;;;;;;6.63;4.20;;;-0.30;99.90;;;;;;5007954;28;20463;-70
2023/03/01 02:04:21;;;;;;;7.17;3.40;;;-0.30;99.90;;;;;;5004893;28;20454;-70
2023/03/01 02:06:55;;;;;;;5.13;4.10;;;-0.20;99.90;;;;;;5006666;28;20487;-70
2023/03/01 02:09:24;;;;;;;3.50;2.77;;;-0.40;99.90;;;;;;5012696;28;20525;-70
2023/03/01 02:11:52;;;;;;;3.23;2.40;;;-0.40;99.90;;;;;;5000001;28;21065;-70
2023/03/01 02:14:19;;;;;;;5.13;4.33;;;-0.40;99.90;;;;;;5003678;28;20440;-70
2023/03/01 02:16:47;;;;;;;5.07;3.07;;;-0.40;99.90;;;;;;5000236;28;20505;-70
2023/03/01 02:19:27;;;;;;;4.40;3.47;;;-0.50;99.90;;;;;;5010716;28;20424;-70
2023/03/01 02:22:01;;;;;;;4.80;3.80;;;-0.50;99.90;;;;;;5008962;28;20576;-71
2023/03/01 02:24:36;;;;;;;6.30;2.57;;;-0.50;99.90;;;;;;4999306;28;20979;-69
2023/03/01 02:27:04;;;;;;;5.27;4.53;;;-0.50;99.90;;;;;;5007070;28;20480;-71
2023/03/01 02:29:32;;;;;;;4.17;3.40;;;-0.60;99.90;;;;;;5003600;28;20812;-71
2023/03/01 02:32:02;;;;;;;8.13;3.93;;;-0.60;99.90;;;;;;5007719;28;20842;-71
2023/03/01 02:34:30;;;;;;;6.03;2.73;;;-0.70;99.90;;;;;;5003131;28;20420;-71
2023/03/01 02:37:00;;;;;;;5.50;3.90;;;-0.60;99.90;;;;;;5002509;28;20552;-70
2023/03/01 02:39:32;;;;;;;4.30;2.77;;;-0.70;99.90;;;;;;5008477;28;20419;-71
2023/03/01 02:42:00;;;;;;;5.50;2.33;;;-0.70;99.90;;;;;;5006883;28;20435;-70
2023/03/01 02:44:27;;;;;;;3.37;3.07;;;-0.80;99.90;;;;;;5007741;28;20559;-71
2023/03/01 02:46:57;;;;;;;8.07;3.70;;;-1.00;99.90;;;;;;5001177;28;20561;-70
2023/03/01 02:49:27;;;;;;;3.87;2.17;;;-1.00;99.90;;;;;;5006717;28;20636;-71
2023/03/01 02:52:22;;;;;;;5.80;3.07;;;-0.80;99.90;;;;;;5003367;28;20989;-70
2023/03/01 02:54:55;;;;;;;5.50;3.40;;;-0.80;99.90;;;;;;4999759;28;20828;-71
2023/03/01 02:57:24;;;;;;;3.90;2.97;;;-0.70;99.90;;;;;;5005303;28;20806;-71
2023/03/01 02:59:52;;;;;;;6.97;4.73;;;-1.00;99.90;;;;;;5005753;28;20556;-71
2023/03/01 03:02:35;;;;;;;3.30;2.97;;;-1.00;99.90;;;;;;5007926;28;20439;-71
2023/03/01 03:05:08;;;;;;;4.37;2.63;;;-1.00;99.90;;;;;;5001181;28;20549;-71
2023/03/01 03:07:35;;;;;;;5.33;3.10;;;-1.10;99.90;;;;;;5008568;28;20481;-71
2023/03/01 03:10:03;;;;;;;4.20;3.80;;;-1.20;99.90;;;;;;5007777;28;20427;-71
2023/03/01 03:12:30;;;;;;;6.33;3.10;;;-1.20;99.90;;;;;;5007180;28;20830;-71
2023/03/01 03:14:57;;;;;;;3.90;3.47;;;-1.20;99.90;;;;;;5006846;28;20457;-71
2023/03/01 03:17:26;;;;;;;4.20;3.10;;;-1.20;99.90;;;;;;5006855;28;20538;-71
2023/03/01 03:19:52;;;;;;;4.30;3.03;;;-1.30;99.90;;;;;;5007904;28;20432;-71
2023/03/01 03:22:19;;;;;;;5.67;3.63;;;-1.30;99.90;;;;;;5006965;28;20435;-71
2023/03/01 03:24:46;;;;;;;6.37;2.87;;;-1.20;99.90;;;;;;5003011;28;20461;-71
2023/03/01 03:27:15;;;;;;;4.73;4.23;;;-1.20;99.90;;;;;;5004970;28;20493;-70
2023/03/01 03:29:42;;;;;;;4.93;2.93;;;-1.20;99.90;;;;;;5006866;28;20449;-69
2023/03/01 03:32:08;;;;;;;5.83;2.87;;;-1.20;99.90;;;;;;5002777;28;20469;-70
2023/03/01 03:34:37;;;;;;;2.77;2.17;;;-1.20;99.90;;;;;;4968309;28;20556;-69
2023/03/01 03:38:01;;;;;;;5.00;4.40;;;-1.20;99.90;;;;;;5004600;28;20478;-72
2023/03/01 03:39:54;;;;;;;7.10;3.20;;;-1.20;99.90;;;;;;5006131;28;20461;-69
2023/03/01 03:42:22;;;;;;;4.07;3.30;;;-1.40;99.90;;;;;;5002713;28;20454;-69
2023/03/01 03:44:49;;;;;;;2.60;2.30;;;-1.30;99.90;;;;;;5000591;28;20433;-69
2023/03/01 03:47:16;;;;;;;4.00;2.80;;;-1.30;99.90;;;;;;5003105;28;20535;-70
2023/03/01 03:49:44;;;;;;;4.23;3.67;;;-1.40;99.90;;;;;;5002331;28;20435;-70
2023/03/01 03:52:13;;;;;;;3.20;2.83;;;-1.40;99.90;;;;;;5002331;28;21020;-70
2023/03/01 03:54:40;;;;;;;3.27;3.00;;;-1.50;99.90;;;;;;5003168;28;20983;-70
2023/03/01 03:57:07;;;;;;;2.50;2.30;;;-1.50;99.90;;;;;;4999946;28;21056;-69
2023/03/01 03:59:36;;;;;;;13.17;3.70;;;-1.50;99.90;;;;;;5004816;28;20458;-70
2023/03/01 04:02:03;;;;;;;4.07;3.00;;;-1.50;99.90;;;;;;4999996;28;20436;-70
2023/03/01 04:04:30;;;;;;;2.73;2.53;;;-1.50;99.90;;;;;;5005994;28;20940;-69
2023/03/01 04:06:58;;;;;;;5.57;2.73;;;-1.50;99.90;;;;;;4996350;28;20644;-70
2023/03/01 04:09:25;;;;;;;6.13;3.13;;;-1.50;99.90;;;;;;4997406;28;21264;-69
2023/03/01 04:11:55;;;;;;;3.40;3.10;;;-1.40;99.90;;;;;;5001478;28;20489;-70
2023/03/01 04:14:22;;;;;;;10.20;4.87;;;-1.40;99.90;;;;;;5002848;28;21290;-70
2023/03/01 04:16:49;;;;;;;4.47;3.00;;;-1.40;99.90;;;;;;5005437;28;20497;-69
2023/03/01 04:19:16;;;;;;;2.77;2.43;;;-1.30;99.90;;;;;;4987220;28;20697;-69
2023/03/01 04:21:42;;;;;;;3.60;3.20;;;-1.40;99.90;;;;;;5002819;28;20446;-70
2023/03/01 04:24:12;;;;;;;9.93;4.00;;;-1.50;99.90;;;;;;4993396;28;20536;-71
2023/03/01 04:26:39;;;;;;;2.53;2.23;;;-1.40;99.90;;;;;;5001759;28;20486;-71
2023/03/01 04:29:05;;;;;;;15.33;4.80;;;-1.40;99.90;;;;;;5001882;28;20560;-70
2023/03/01 04:31:33;;;;;;;4.70;3.33;;;-1.40;99.90;;;;;;5009739;28;20477;-71
2023/03/01 04:34:00;;;;;;;6.30;3.97;;;-1.40;99.90;;;;;;5006870;28;21036;-71
2023/03/01 04:36:29;;;;;;;6.73;3.70;;;-1.40;99.90;;;;;;5008020;28;20856;-71
2023/03/01 04:38:56;;;;;;;4.27;3.93;;;-1.40;99.90;;;;;;5003994;28;20458;-70
2023/03/01 04:41:27;;;;;;;3.97;2.93;;;-1.50;99.90;;;;;;5008798;28;20457;-70
2023/03/01 04:43:54;;;;;;;3.67;3.37;;;-1.60;99.90;;;;;;5005001;28;21118;-71
2023/03/01 04:46:22;;;;;;;11.80;3.70;;;-1.50;99.90;;;;;;5003382;28;20487;-70
2023/03/01 04:48:50;;;;;;;6.67;4.13;;;-1.50;99.90;;;;;;5008631;28;20507;-69
2023/03/01 04:51:18;;;;;;;5.17;2.80;;;-1.50;99.90;;;;;;5009416;28;20481;-70
2023/03/01 04:53:45;;;;;;;5.80;4.03;;;-1.60;99.90;;;;;;5008176;28;20496;-69
2023/03/01 04:56:13;;;;;;;6.93;6.23;;;-1.70;99.90;;;;;;5009162;28;20462;-70
2023/03/01 04:58:42;;;;;;;6.30;3.10;;;-1.70;99.90;;;;;;5007330;28;20521;-70
2023/03/01 05:01:14;;;;;;;2.93;2.70;;;-1.80;99.90;;;;;;5002476;28;20471;-68
2023/03/01 05:03:42;;;;;;;12.23;4.13;;;-1.80;99.90;;;;;;5005459;28;20435;-69
2023/03/01 05:06:10;;;;;;;9.90;3.53;;;-1.70;99.90;;;;;;5006788;28;20474;-70
2023/03/01 05:08:37;;;;;;;2.33;2.13;;;-1.70;99.90;;;;;;5010049;28;20542;-70
2023/03/01 05:11:09;;;;;;;3.93;3.10;;;-1.80;99.90;;;;;;5009707;28;20507;-69
2023/03/01 05:13:37;;;;;;;2.90;1.90;;;-1.70;99.90;;;;;;5015166;28;20464;-68
2023/03/01 05:16:10;;;;;;;4.00;3.60;;;-1.80;99.90;;;;;;5018250;28;20466;-70
2023/03/01 05:18:38;;;;;;;11.00;4.77;;;-1.70;99.90;;;;;;5002584;28;20545;-70
2023/03/01 05:21:07;;;;;;;23.37;4.53;;;-1.80;99.90;;;;;;5004473;28;20616;-70
2023/03/01 05:23:36;;;;;;;2.47;1.93;;;-2.00;99.90;;;;;;5015016;28;20464;-70
2023/03/01 05:26:05;;;;;;;6.93;3.53;;;-2.10;99.90;;;;;;5005490;28;20477;-69
2023/03/01 05:28:32;;;;;;;3.53;2.53;;;-2.00;99.90;;;;;;5004787;28;20457;-69
2023/03/01 05:30:59;;;;;;;18.03;6.60;;;-2.00;99.90;;;;;;5006740;28;20560;-70
2023/03/01 05:33:28;;;;;;;22.50;5.67;;;-1.90;99.90;;;;;;5004568;28;20959;-70
2023/03/01 05:35:55;;;;;;;5.47;3.50;;;-1.90;99.90;;;;;;5006098;28;20453;-69
2023/03/01 05:38:23;;;;;;;6.50;3.50;;;-1.90;99.90;;;;;;5005199;28;20468;-70
2023/03/01 05:40:50;;;;;;;13.37;5.63;;;-1.90;99.90;;;;;;5010024;28;20465;-69
2023/03/01 05:43:18;;;;;;;9.90;5.20;;;-1.90;99.90;;;;;;5004333;28;20458;-70
2023/03/01 05:45:45;;;;;;;5.60;3.40;;;-2.00;99.90;;;;;;5007128;28;20446;-70
2023/03/01 05:48:13;;;;;;;15.17;3.53;;;-2.00;99.90;;;;;;5003566;28;20462;-70
2023/03/01 05:50:43;;;;;;;22.17;6.70;;;-1.90;99.90;;;;;;5002870;28;20959;-70
2023/03/01 05:53:12;;;;;;;9.53;3.87;;;-1.90;99.90;;;;;;5010377;28;20498;-70
2023/03/01 05:55:39;;;;;;;3.40;3.10;;;-1.90;99.90;;;;;;5006945;28;20497;-70
2023/03/01 05:58:08;;;;;;;11.50;5.33;;;-2.00;99.90;;;;;;5016408;28;20511;-70
2023/03/01 06:00:35;;;;;;;5.17;4.03;;;-2.00;99.90;;;;;;5023260;28;20457;-70
2023/03/01 06:03:03;;;;;;;7.60;4.40;;;-2.00;99.90;;;;;;5011434;28;20522;-69
2023/03/01 06:05:31;;;;;;;7.33;3.03;;;-2.10;99.90;;;;;;5012506;28;20417;-69
2023/03/01 06:08:02;;;;;;;3.73;3.23;;;-2.10;99.90;;;;;;4979195;28;20505;-69
2023/03/01 06:10:29;;;;;;;5.43;4.17;;;-2.10;99.90;;;;;;5005367;28;20439;-70
2023/03/01 06:12:57;;;;;;;6.97;4.77;;;-2.10;99.90;;;;;;5008096;28;20578;-70
2023/03/01 06:15:24;;;;;;;30.07;4.03;;;-2.10;99.90;;;;;;5010836;28;20440;-70
2023/03/01 06:17:51;;;;;;;5.60;4.00;;;-2.00;99.90;;;;;;5003581;28;20489;-70
2023/03/01 06:20:20;;;;;;;2.60;2.40;;;-1.90;99.90;;;;;;5008456;28;20482;-70
2023/03/01 06:22:48;;;;;;;25.07;5.70;;;-1.90;99.90;;;;;;5004518;28;20492;-69
2023/03/01 06:25:19;;;;;;;4.67;3.20;;;-1.90;99.90;;;;;;5008718;28;20536;-70
2023/03/01 06:27:48;;;;;;;4.83;4.43;;;-1.80;99.90;;;;;;5023862;28;20472;-70
2023/03/01 06:30:17;;;;;;;5.67;3.70;;;-1.90;99.90;;;;;;5001835;28;20578;-70
2023/03/01 06:32:45;;;;;;;4.37;3.90;;;-2.10;99.90;;;;;;5005156;28;20571;-70
2023/03/01 06:35:13;;;;;;;73.13;5.00;;;-2.20;99.90;;;;;;5010854;28;20465;-70
2023/03/01 06:37:42;;;;;;;4.90;3.23;;;-2.20;99.90;;;;;;5000777;28;20506;-70
2023/03/01 06:40:14;;;;;;;5.03;4.47;;;-2.20;99.90;;;;;;5012893;28;20581;-72
2023/03/01 06:42:45;;;;;;;5.93;4.60;;;-2.10;99.90;;;;;;5006832;28;20557;-70
2023/03/01 06:45:12;;;;;;;3.47;2.97;;;-1.90;99.90;;;;;;5019067;28;20456;-70
2023/03/01 06:47:39;;;;;;;5.03;2.93;;;-1.80;99.90;;;;;;5006698;28;20564;-70
2023/03/01 06:50:06;;;;;;;14.70;5.57;;;-1.80;99.90;;;;;;5001860;28;20468;-70
2023/03/01 06:52:34;;;;;;;8.13;3.90;;;-1.60;99.90;;;;;;5004873;28;20501;-70
2023/03/01 06:55:01;;;;;;;4.60;4.20;;;-1.60;99.90;;;;;;5004413;28;20964;-70
2023/03/01 06:57:28;;;;;;;4.07;3.73;;;-1.50;99.90;;;;;;5002701;28;20518;-70
2023/03/01 06:59:56;;;;;;;9.07;5.00;;;-1.30;99.90;;;;;;5009606;28;20508;-70
2023/03/01 07:02:23;;;;;;;7.33;4.33;;;-1.10;99.90;;;;;;5009875;28;20465;-70
2023/03/01 07:04:51;;;;;;;12.10;4.97;;;-0.90;99.90;;;;;;5012842;28;20968;-70
2023/03/01 07:07:18;;;;;;;11.97;5.47;;;-0.60;99.90;;;;;;5005787;28;20581;-69
2023/03/01 07:09:45;;;;;;;10.23;4.90;;;-0.40;99.90;;;;;;5000711;28;20497;-70
2023/03/01 07:12:15;;;;;;;6.20;3.57;;;-0.30;99.90;;;;;;5003047;28;20485;-70
2023/03/01 07:14:42;;;;;;;6.03;4.57;;;-0.30;99.90;;;;;;5007769;28;20437;-70
2023/03/01 07:17:10;;;;;;;3.87;3.33;;;-0.20;99.90;;;;;;5003345;28;20465;-70
2023/03/01 07:19:37;;;;;;;6.30;4.30;;;-0.10;99.90;;;;;;5006896;28;20841;-71
2023/03/01 07:22:07;;;;;;;8.70;4.10;;;-0.10;99.90;;;;;;5004904;28;20505;-70
2023/03/01 07:24:37;;;;;;;8.00;4.77;;;-0.10;99.90;;;;;;5010080;28;20468;-70
2023/03/01 07:27:04;;;;;;;6.93;4.53;;;0.00;99.90;;;;;;5007099;28;20911;-70
2023/03/01 07:29:31;;;;;;;6.17;4.10;;;0.20;99.90;;;;;;5013359;28;20446;-69
2023/03/01 07:31:58;;;;;;;8.27;4.50;;;0.30;99.90;;;;;;5010452;28;20510;-70
2023/03/01 07:34:26;;;;;;;7.07;4.37;;;0.40;99.90;;;;;;5003777;28;20968;-70
2023/03/01 07:36:53;;;;;;;4.63;4.10;;;0.50;99.90;;;;;;5007632;28;20526;-71
2023/03/01 07:39:23;;;;;;;6.17;3.87;;;0.60;99.90;;;;;;5005406;28;20442;-70
2023/03/01 07:41:50;;;;;;;13.77;4.97;;;0.70;99.90;;;;;;5004892;28;20436;-70
2023/03/01 07:44:17;;;;;;;13.07;5.57;;;0.80;99.90;;;;;;5008750;28;20440;-70
2023/03/01 07:46:44;;;;;;;4.67;2.93;;;1.10;99.90;;;;;;5007638;28;20527;-70
2023/03/01 07:49:11;;;;;;;6.67;3.70;;;1.20;99.90;;;;;;5011037;28;20518;-69
2023/03/01 07:51:40;;;;;;;4.73;3.87;;;1.60;99.90;;;;;;5007343;28;20432;-70
2023/03/01 07:54:07;;;;;;;5.40;3.23;;;2.00;99.90;;;;;;5000342;28;20536;-71
2023/03/01 07:56:34;;;;;;;6.13;5.43;;;2.10;99.90;;;;;;5005443;28;20577;-70
2023/03/01 07:59:00;;;;;;;10.90;7.50;;;2.50;99.90;;;;;;5000066;28;20571;-70
2023/03/01 08:01:27;;;;;;;5.30;4.23;;;3.30;99.90;;;;;;5010000;28;20456;-70
2023/03/01 08:03:54;;;;;;;6.90;3.80;;;3.70;99.90;;;;;;5005937;28;20489;-71
2023/03/01 08:06:21;;;;;;;6.63;3.80;;;3.40;99.90;;;;;;5007487;28;20450;-71
2023/03/01 08:08:50;;;;;;;13.33;5.00;;;3.00;99.90;;;;;;5005136;28;20423;-70
2023/03/01 08:11:17;;;;;;;7.83;4.20;;;2.90;99.90;;;;;;5011781;28;21037;-71
2023/03/01 08:13:44;;;;;;;8.33;5.10;;;3.00;99.90;;;;;;5000826;28;21055;-70
2023/03/01 08:16:13;;;;;;;6.93;3.67;;;2.90;99.90;;;;;;5002201;28;20484;-71
2023/03/01 08:18:40;;;;;;;3.30;2.80;;;3.30;99.90;;;;;;5006277;28;20432;-71
2023/03/01 08:21:11;;;;;;;6.43;4.03;;;3.80;99.90;;;;;;5018232;28;20476;-70
2023/03/01 08:23:39;;;;;;;6.70;4.10;;;3.60;99.90;;;;;;5013262;28;20817;-71
2023/03/01 08:26:09;;;;;;;5.43;3.67;;;3.50;99.90;;;;;;5004778;28;20456;-71
2023/03/01 08:28:37;;;;;;;4.93;3.77;;;3.60;99.90;;;;;;5010076;28;20983;-71
2023/03/01 08:31:04;;;;;;;6.13;4.63;;;3.70;99.90;;;;;;5007144;28;20460;-70
2023/03/01 08:33:31;;;;;;;10.30;5.10;;;3.80;99.90;;;;;;5006919;28;20456;-71
2023/03/01 08:36:06;;;;;;;8.23;3.63;;;4.20;99.90;;;;;;5008057;28;20511;-71
2023/03/01 08:38:33;;;;;;;6.70;3.30;;;4.50;99.90;;;;;;4997683;28;20962;-71
2023/03/01 08:41:01;;;;;;;12.00;4.23;;;5.20;99.90;;;;;;5009561;28;20432;-70
2023/03/01 08:43:30;;;;;;;4.03;1.70;;;5.10;99.90;;;;;;5011865;28;20833;-71
2023/03/01 08:45:57;;;;;;;4.33;3.67;;;5.30;99.90;;;;;;5009722;28;20458;-71
2023/03/01 08:48:24;;;;;;;5.27;2.40;;;5.60;99.90;;;;;;5010380;28;20548;-71
2023/03/01 08:50:54;;;;;;;5.73;3.70;;;6.30;99.90;;;;;;5003319;28;20433;-72
2023/03/01 08:53:21;;;;;;;5.23;3.83;;;6.60;99.90;;;;;;5004721;28;20908;-71
2023/03/01 08:55:48;;;;;;;12.63;5.50;;;6.40;99.90;;;;;;5003882;28;20555;-71
2023/03/01 08:58:15;;;;;;;10.53;5.47;;;7.00;99.90;;;;;;5009189;28;20837;-71
2023/03/01 09:00:43;;;;;;;4.87;4.07;;;8.10;99.90;;;;;;5005508;28;20487;-71
2023/03/01 09:03:13;;;;;;;7.50;5.40;;;9.10;99.90;;;;;;5007663;28;20479;-71
2023/03/01 09:05:40;;;;;;;10.40;6.20;;;9.00;98.40;;;;;;5003783;28;20461;-72
2023/03/01 09:08:08;;;;;;;4.70;3.80;;;8.90;97.40;;;;;;5000196;28;21009;-71
2023/03/01 09:10:39;;;;;;;5.20;3.90;;;8.70;97.40;;;;;;5010294;28;20547;-72
2023/03/01 09:13:06;;;;;;;5.70;3.47;;;8.70;97.50;;;;;;5011773;28;20504;-71
2023/03/01 09:15:33;;;;;;;4.03;3.53;;;8.90;96.50;;;;;;5006124;28;20905;-72
2023/03/01 09:18:01;;;;;;;7.73;5.77;;;9.10;95.60;;;;;;5010653;28;20493;-72
2023/03/01 09:20:28;;;;;;;6.93;4.90;;;9.50;95.50;;;;;;5002829;28;20508;-70
2023/03/01 09:22:56;;;;;;;7.87;5.50;;;9.50;94.50;;;;;;5011177;28;20586;-70
2023/03/01 09:25:23;;;;;;;7.30;5.17;;;10.60;93.60;;;;;;5006882;28;20595;-71
2023/03/01 09:27:55;;;;;;;6.43;5.50;;;11.10;92.20;;;;;;5008541;28;20895;-71
2023/03/01 09:30:24;;;;;;;6.20;4.27;;;12.10;90.80;;;;;;5010389;28;20563;-71
2023/03/01 09:32:50;;;;;;;6.97;4.73;;;11.90;85.80;;;;;;5008102;28;20991;-72
2023/03/01 09:35:19;;;;;;;5.23;4.30;;;12.10;86.80;;;;;;5005114;28;20552;-71
2023/03/01 09:37:47;;;;;;;11.10;5.13;;;11.90;83.00;;;;;;5008487;28;20478;-71
2023/03/01 09:40:17;;;;;;;5.43;3.80;;;12.00;83.30;;;;;;5003784;28;20541;-71
2023/03/01 09:42:56;;;;;;;7.50;5.57;;;11.60;80.40;;;;;;5012665;28;20836;-71
2023/03/01 09:45:31;;;;;;;6.63;3.80;;;11.10;81.40;;;;;;5016767;28;20461;-71
2023/03/01 09:47:59;;;;;;;6.30;4.53;;;11.70;81.40;;;;;;5012983;28;20523;-71
2023/03/01 09:50:35;;;;;;;8.70;4.43;;;12.00;80.70;;;;;;5018026;28;20484;-71
2023/03/01 09:53:04;;;;;;;5.40;4.37;;;12.80;78.30;;;;;;5008629;28;20477;-71
2023/03/01 09:55:36;;;;;;;9.67;4.83;;;12.80;73.80;;;;;;5002975;28;20473;-70
2023/03/01 09:58:24;;;;;;;8.30;4.50;;;12.20;73.70;;;;;;5006428;28;20562;-70
2023/03/01 10:00:52;;;;;;;8.83;3.90;;;12.10;73.40;;;;;;5009570;28;20552;-71
2023/03/01 10:03:26;;;;;;;5.10;4.60;;;11.40;74.10;;;;;;5012910;28;20473;-71
2023/03/01 10:06:00;;;;;;;3.67;3.33;;;12.30;74.80;;;;;;5005225;28;20473;-72
2023/03/01 10:08:38;;;;;;;2.73;2.30;;;13.10;71.80;;;;;;5008457;28;20562;-71
2023/03/01 10:11:13;;;;;;;5.30;3.90;;;12.70;68.50;;;;;;5007308;28;20453;-72
2023/03/01 10:13:48;;;;;;;3.50;2.90;;;12.00;70.20;;;;;;5002639;28;20474;-72
2023/03/01 10:16:20;;;;;;;7.53;4.03;;;11.90;68.60;;;;;;5004838;28;20997;-71
2023/03/01 10:18:53;;;;;;;5.47;3.53;;;11.80;70.50;;;;;;5006166;28;20452;-71
2023/03/01 10:21:23;;;;;;;7.20;3.77;;;11.90;69.10;;;;;;5011553;28;20453;-70
2023/03/01 10:23:52;;;;;;;2.80;2.60;;;12.20;68.70;;;;;;5011473;28;20453;-71
2023/03/01 10:26:45;;;;;;;6.20;3.13;;;12.50;69.80;;;;;;5014498;28;20572;-71
2023/03/01 10:29:13;;;;;;;5.23;3.37;;;12.60;68.40;;;;;;4999444;28;21005;-70
2023/03/01 10:31:44;;;;;;;5.83;3.50;;;12.80;67.20;;;;;;5008446;28;20454;-71
2023/03/01 10:34:14;;;;;;;6.50;3.30;;;12.60;67.40;;;;;;5012024;28;20476;-71
2023/03/01 10:36:45;;;;;;;7.80;4.10;;;13.30;66.50;;;;;;5012822;28;20526;-71
2023/03/01 10:39:20;;;;;;;4.17;2.77;;;13.00;64.10;;;;;;5012369;28;20476;-71
2023/03/01 10:41:56;;;;;;;4.43;3.20;;;13.10;65.20;;;;;;5006138;28;20902;-71
2023/03/01 10:44:39;;;;;;;6.13;3.40;;;13.40;62.70;;;;;;5008907;28;20528;-72
2023/03/01 10:47:05;;;;;;;4.23;2.90;;;13.20;62.40;;;;;;5000603;28;20493;-71
2023/03/01 10:49:33;;;;;;;7.60;4.03;;;12.80;63.00;;;;;;5009603;28;20461;-71
2023/03/01 10:52:18;;;;;;;4.63;3.50;;;13.50;62.70;;;;;;5010058;28;20461;-72
2023/03/01 10:54:54;;;;;;;3.03;2.33;;;14.40;62.20;;;;;;5009604;28;20477;-72
2023/03/01 10:57:40;;;;;;;4.40;2.93;;;13.60;58.50;;;;;;5005855;28;20477;-71
2023/03/01 11:00:31;;;;;;;5.33;2.90;;;13.00;59.70;;;;;;5011310;28;20448;-72
2023/03/01 11:03:12;;;;;;;7.27;3.53;;;13.40;60.90;;;;;;4993094;28;20570;-71
2023/03/01 11:05:56;;;;;;;5.10;2.80;;;13.80;61.30;;;;;;5007614;28;20449;-70
2023/03/01 11:08:43;;;;;;;2.37;1.77;;;14.40;59.90;;;;;;5002155;28;20541;-70
2023/03/01 11:11:26;;;;;;;2.90;2.50;;;14.30;58.50;;;;;;5009090;28;20457;-70
2023/03/01 11:13:57;;;;;;;4.90;3.13;;;13.90;58.00;;;;;;5007504;28;20473;-69
2023/03/01 11:16:27;;;;;;;2.43;2.23;;;13.70;58.90;;;;;;5008641;28;20485;-70
2023/03/01 11:18:58;;;;;;;5.83;3.23;;;13.00;58.80;;;;;;5003152;28;20557;-70
2023/03/01 11:21:28;;;;;;;4.87;2.20;;;13.20;58.80;;;;;;5012034;28;20523;-70
2023/03/01 11:23:59;;;;;;;3.27;2.97;;;14.00;58.40;;;;;;5001349;28;20541;-70
2023/03/01 11:26:26;;;;;;;5.53;2.70;;;14.10;58.10;;;;;;5006297;28;20483;-69
2023/03/01 11:28:57;;;;;;;3.50;2.37;;;13.80;58.90;;;;;;5001087;28;20458;-70
2023/03/01 11:31:25;;;;;;;12.77;3.63;;;13.60;57.70;;;;;;5002298;28;20525;-70
2023/03/01 11:33:58;;;;;;;5.27;4.30;;;13.60;57.60;;;;;;5004629;28;20503;-71
2023/03/01 11:36:31;;;;;;;10.57;5.50;;;13.90;57.40;;;;;;5000744;28;20482;-71
2023/03/01 11:39:21;;;;;;;4.13;3.57;;;15.00;57.60;;;;;;5007789;28;20899;-69
2023/03/01 11:41:53;;;;;;;4.67;3.40;;;15.10;56.50;;;;;;4999950;28;20548;-70
2023/03/01 11:44:26;;;;;;;2.33;2.07;;;14.70;56.00;;;;;;5005337;28;20458;-71
2023/03/01 11:47:13;;;;;;;7.20;4.40;;;14.10;56.00;;;;;;5005037;28;20912;-70
2023/03/01 11:49:57;;;;;;;6.57;4.30;;;14.60;57.30;;;;;;5007273;28;20477;-71
2023/03/01 11:52:37;;;;;;;8.40;4.70;;;15.60;55.60;;;;;;5007608;28;20521;-70
2023/03/01 11:55:21;;;;;;;5.90;3.90;;;14.90;55.50;;;;;;5003684;28;20499;-70
2023/03/01 11:58:09;;;;;;;7.73;4.90;;;15.40;55.40;;;;;;5009618;28;20489;-69
2023/03/01 12:00:51;;;;;;;7.57;5.40;;;16.10;55.20;;;;;;5004857;28;20561;-70
2023/03/01 12:03:28;;;;;;;6.20;4.40;;;16.20;53.90;;;;;;5000495;28;21005;-71
2023/03/01 12:06:31;;;;;;;6.40;4.23;;;15.50;53.60;;;;;;5004437;28;20457;-71
2023/03/01 12:09:16;;;;;;;8.60;5.80;;;15.50;54.50;;;;;;4948368;29;20502;-70
2023/03/01 12:12:09;;;;;;;5.93;4.57;;;16.60;54.50;;;;;;4949994;28;20461;-69
2023/03/01 12:14:50;;;;;;;5.50;4.10;;;17.10;52.60;;;;;;4991899;28;20509;-72
2023/03/01 12:17:37;;;;;;;7.87;4.90;;;17.10;52.90;;;;;;5007795;28;20481;-71
2023/03/01 12:20:15;;;;;;;7.37;4.80;;;17.20;52.50;;;;;;5001706;28;21039;-70
2023/03/01 12:22:58;;;;;;;6.53;4.00;;;17.00;51.90;;;;;;5005363;28;20536;-70
2023/03/01 12:25:34;;;;;;;8.03;4.57;;;17.90;51.40;;;;;;5000063;28;20577;-71
2023/03/01 12:28:45;;;;;;;5.47;4.13;;;16.20;50.90;;;;;;5003153;28;20482;-71
2023/03/01 12:31:37;;;;;;;5.00;3.30;;;15.70;51.00;;;;;;5000167;28;20449;-71
2023/03/01 12:34:13;;;;;;;4.77;4.07;;;15.50;52.00;;;;;;5007990;28;20500;-70
2023/03/01 12:36:58;;;;;;;4.60;4.00;;;15.70;52.60;;;;;;5005899;28;20485;-71
2023/03/01 12:39:41;;;;;;;3.37;2.43;;;16.00;52.10;;;;;;5011909;28;20572;-70
2023/03/01 12:42:20;;;;;;;7.10;4.20;;;15.50;51.60;;;;;;5005391;28;20543;-70
2023/03/01 12:45:17;;;;;;;6.67;4.30;;;15.20;52.80;;;;;;4996014;28;20524;-70
2023/03/01 12:47:58;;;;;;;5.77;4.20;;;16.00;52.50;;;;;;5000104;28;20564;-69
2023/03/01 12:50:32;;;;;;;3.47;2.23;;;16.70;52.00;;;;;;5000977;28;20930;-70
2023/03/01 12:52:59;;;;;;;5.90;4.40;;;16.70;50.40;;;;;;5008020;28;20456;-71
2023/03/01 12:55:32;;;;;;;5.50;4.20;;;15.40;51.40;;;;;;5001724;28;20564;-70
2023/03/01 12:58:11;;;;;;;6.50;4.40;;;15.80;52.30;;;;;;5011169;28;20536;-71
2023/03/01 13:00:46;;;;;;;11.43;5.20;;;15.50;51.60;;;;;;5005259;28;20545;-71
2023/03/01 13:03:25;;;;;;;3.30;2.60;;;16.20;51.80;;;;;;5018585;28;20528;-70
2023/03/01 13:06:07;;;;;;;7.10;3.87;;;15.80;50.60;;;;;;5004616;28;20890;-70